sensor_id;sensor_type;location;lat;lon;timestamp;P1;durP1;ratioP1;P2;durP2;ratioP2
32918;SDS011;19280;42.646;21.150;2022-07-03T00:01:17;11.82;;;5.70;;
32918;SDS011;19280;42.646;21.150;2022-07-03T00:03:44;9.38;;;5.13;;
32918;SDS011;19280;42.646;21.150;2022-07-03T00:06:11;10.43;;;4.75;;
32918;SDS011;19280;42.646;21.150;2022-07-03T00:08:39;9.63;;;5.15;;
32918;SDS011;19280;42.646;21.150;2022-07-03T00:11:06;12.52;;;5.68;;
32918;SDS011;19280;42.646;21.150;2022-07-03T00:13:33;9.18;;;5.13;;
32918;SDS011;19280;42.646;21.150;2022-07-03T00:16:00;10.52;;;5.22;;
32918;SDS011;19280;42.646;21.150;2022-07-03T00:18:28;10.80;;;5.22;;
32918;SDS011;19280;42.646;21.150;2022-07-03T00:20:59;9.80;;;5.20;;
32918;SDS011;19280;42.646;21.150;2022-07-03T00:23:28;7.30;;;5.55;;
32918;SDS011;19280;42.646;21.150;2022-07-03T00:25:57;15.68;;;7.25;;
32918;SDS011;19280;42.646;21.150;2022-07-03T00:28:27;14.70;;;7.78;;
32918;SDS011;19280;42.646;21.150;2022-07-03T00:30:54;16.63;;;7.57;;
32918;SDS011;19280;42.646;21.150;2022-07-03T00:33:22;11.43;;;7.18;;
32918;SDS011;19280;42.646;21.150;2022-07-03T00:35:50;16.92;;;8.02;;
32918;SDS011;19280;42.646;21.150;2022-07-03T00:38:20;14.65;;;7.72;;
32918;SDS011;19280;42.646;21.150;2022-07-03T00:40:47;11.93;;;7.57;;
32918;SDS011;19280;42.646;21.150;2022-07-03T00:43:15;16.63;;;8.68;;
32918;SDS011;19280;42.646;21.150;2022-07-03T00:45:46;17.40;;;7.82;;
32918;SDS011;19280;42.646;21.150;2022-07-03T00:48:17;17.55;;;9.45;;
32918;SDS011;19280;42.646;21.150;2022-07-03T00:50:49;20.63;;;8.93;;
32918;SDS011;19280;42.646;21.150;2022-07-03T00:53:24;16.77;;;8.63;;
32918;SDS011;19280;42.646;21.150;2022-07-03T00:55:52;14.05;;;8.23;;
32918;SDS011;19280;42.646;21.150;2022-07-03T00:58:19;18.63;;;8.55;;
32918;SDS011;19280;42.646;21.150;2022-07-03T01:00:46;20.88;;;8.75;;
32918;SDS011;19280;42.646;21.150;2022-07-03T01:03:17;19.52;;;9.25;;
32918;SDS011;19280;42.646;21.150;2022-07-03T01:05:51;23.80;;;8.88;;
32918;SDS011;19280;42.646;21.150;2022-07-03T01:08:21;17.88;;;9.05;;
32918;SDS011;19280;42.646;21.150;2022-07-03T01:16:21;27.67;;;10.95;;
32918;SDS011;19280;42.646;21.150;2022-07-03T01:18:52;19.05;;;10.40;;
32918;SDS011;19280;42.646;21.150;2022-07-03T01:24:03;22.77;;;9.07;;
32918;SDS011;19280;42.646;21.150;2022-07-03T01:26:38;21.65;;;9.60;;
32918;SDS011;19280;42.646;21.150;2022-07-03T01:29:16;21.10;;;10.45;;
32918;SDS011;19280;42.646;21.150;2022-07-03T01:31:44;21.23;;;10.25;;
32918;SDS011;19280;42.646;21.150;2022-07-03T01:34:15;16.30;;;8.88;;
32918;SDS011;19280;42.646;21.150;2022-07-03T01:36:44;17.10;;;8.73;;
32918;SDS011;19280;42.646;21.150;2022-07-03T01:39:14;22.45;;;9.27;;
32918;SDS011;19280;42.646;21.150;2022-07-03T01:41:44;15.13;;;9.27;;
32918;SDS011;19280;42.646;21.150;2022-07-03T01:44:11;15.20;;;8.25;;
32918;SDS011;19280;42.646;21.150;2022-07-03T01:46:40;18.33;;;9.93;;
32918;SDS011;19280;42.646;21.150;2022-07-03T01:49:12;15.30;;;9.27;;
32918;SDS011;19280;42.646;21.150;2022-07-03T01:51:42;15.65;;;10.07;;
32918;SDS011;19280;42.646;21.150;2022-07-03T01:54:10;16.08;;;10.75;;
32918;SDS011;19280;42.646;21.150;2022-07-03T01:56:37;16.48;;;10.32;;
32918;SDS011;19280;42.646;21.150;2022-07-03T01:59:04;17.02;;;10.10;;
32918;SDS011;19280;42.646;21.150;2022-07-03T02:01:45;15.15;;;9.68;;
32918;SDS011;19280;42.646;21.150;2022-07-03T02:04:23;18.73;;;10.10;;
32918;SDS011;19280;42.646;21.150;2022-07-03T02:09:40;13.82;;;9.07;;
32918;SDS011;19280;42.646;21.150;2022-07-03T02:12:11;20.92;;;8.15;;
32918;SDS011;19280;42.646;21.150;2022-07-03T02:14:39;15.07;;;8.75;;
32918;SDS011;19280;42.646;21.150;2022-07-03T02:17:17;26.15;;;9.93;;
32918;SDS011;19280;42.646;21.150;2022-07-03T02:22:11;16.55;;;9.70;;
32918;SDS011;19280;42.646;21.150;2022-07-03T02:24:42;19.15;;;9.90;;
32918;SDS011;19280;42.646;21.150;2022-07-03T02:27:12;18.80;;;9.45;;
32918;SDS011;19280;42.646;21.150;2022-07-03T02:29:54;16.83;;;9.98;;
32918;SDS011;19280;42.646;21.150;2022-07-03T02:32:22;16.20;;;9.48;;
32918;SDS011;19280;42.646;21.150;2022-07-03T02:34:52;16.75;;;9.77;;
32918;SDS011;19280;42.646;21.150;2022-07-03T02:37:22;20.15;;;10.00;;
32918;SDS011;19280;42.646;21.150;2022-07-03T02:39:55;18.98;;;10.77;;
32918;SDS011;19280;42.646;21.150;2022-07-03T02:42:50;15.48;;;9.57;;
32918;SDS011;19280;42.646;21.150;2022-07-03T02:45:11;25.95;;;10.25;;
32918;SDS011;19280;42.646;21.150;2022-07-03T02:50:21;18.45;;;10.90;;
32918;SDS011;19280;42.646;21.150;2022-07-03T02:58:13;17.77;;;9.20;;
32918;SDS011;19280;42.646;21.150;2022-07-03T03:00:50;23.90;;;10.55;;
32918;SDS011;19280;42.646;21.150;2022-07-03T03:03:20;19.77;;;10.98;;
32918;SDS011;19280;42.646;21.150;2022-07-03T03:05:50;17.15;;;10.40;;
32918;SDS011;19280;42.646;21.150;2022-07-03T03:08:27;18.73;;;10.10;;
32918;SDS011;19280;42.646;21.150;2022-07-03T03:10:59;19.92;;;10.07;;
32918;SDS011;19280;42.646;21.150;2022-07-03T03:13:31;18.33;;;9.77;;
32918;SDS011;19280;42.646;21.150;2022-07-03T03:16:05;21.85;;;10.02;;
32918;SDS011;19280;42.646;21.150;2022-07-03T03:18:36;18.20;;;10.43;;
32918;SDS011;19280;42.646;21.150;2022-07-03T03:21:04;22.20;;;9.52;;
32918;SDS011;19280;42.646;21.150;2022-07-03T03:23:45;20.20;;;9.32;;
32918;SDS011;19280;42.646;21.150;2022-07-03T03:26:21;15.27;;;9.40;;
32918;SDS011;19280;42.646;21.150;2022-07-03T03:28:48;13.65;;;9.02;;
32918;SDS011;19280;42.646;21.150;2022-07-03T03:31:15;13.25;;;8.68;;
32918;SDS011;19280;42.646;21.150;2022-07-03T03:33:45;17.58;;;9.60;;
32918;SDS011;19280;42.646;21.150;2022-07-03T03:36:14;15.65;;;9.15;;
32918;SDS011;19280;42.646;21.150;2022-07-03T03:38:44;14.25;;;8.52;;
32918;SDS011;19280;42.646;21.150;2022-07-03T03:43:56;23.73;;;9.05;;
32918;SDS011;19280;42.646;21.150;2022-07-03T03:46:22;14.75;;;8.65;;
32918;SDS011;19280;42.646;21.150;2022-07-03T03:48:49;12.77;;;8.68;;
32918;SDS011;19280;42.646;21.150;2022-07-03T03:51:17;13.73;;;7.18;;
32918;SDS011;19280;42.646;21.150;2022-07-03T03:53:44;14.57;;;6.43;;
32918;SDS011;19280;42.646;21.150;2022-07-03T03:56:11;13.93;;;6.90;;
32918;SDS011;19280;42.646;21.150;2022-07-03T03:58:40;8.05;;;5.70;;
32918;SDS011;19280;42.646;21.150;2022-07-03T04:01:08;14.05;;;6.90;;
32918;SDS011;19280;42.646;21.150;2022-07-03T04:03:35;14.50;;;5.95;;
32918;SDS011;19280;42.646;21.150;2022-07-03T04:06:02;9.73;;;5.57;;
32918;SDS011;19280;42.646;21.150;2022-07-03T04:08:30;10.73;;;5.35;;
32918;SDS011;19280;42.646;21.150;2022-07-03T04:10:57;9.85;;;5.85;;
32918;SDS011;19280;42.646;21.150;2022-07-03T04:13:24;12.57;;;5.32;;
32918;SDS011;19280;42.646;21.150;2022-07-03T04:15:51;12.82;;;5.47;;
32918;SDS011;19280;42.646;21.150;2022-07-03T04:18:18;11.27;;;5.43;;
32918;SDS011;19280;42.646;21.150;2022-07-03T04:20:46;11.35;;;5.15;;
32918;SDS011;19280;42.646;21.150;2022-07-03T04:23:13;11.57;;;5.93;;
32918;SDS011;19280;42.646;21.150;2022-07-03T04:25:39;9.73;;;5.97;;
32918;SDS011;19280;42.646;21.150;2022-07-03T04:28:08;12.77;;;5.90;;
32918;SDS011;19280;42.646;21.150;2022-07-03T04:30:35;11.65;;;6.05;;
32918;SDS011;19280;42.646;21.150;2022-07-03T04:33:02;7.55;;;4.90;;
32918;SDS011;19280;42.646;21.150;2022-07-03T04:35:28;12.10;;;5.45;;
32918;SDS011;19280;42.646;21.150;2022-07-03T04:37:55;9.75;;;5.28;;
32918;SDS011;19280;42.646;21.150;2022-07-03T04:40:23;8.77;;;5.00;;
32918;SDS011;19280;42.646;21.150;2022-07-03T04:42:50;10.70;;;5.30;;
32918;SDS011;19280;42.646;21.150;2022-07-03T04:45:16;8.27;;;4.70;;
32918;SDS011;19280;42.646;21.150;2022-07-03T04:47:43;10.55;;;5.28;;
32918;SDS011;19280;42.646;21.150;2022-07-03T04:50:10;11.38;;;4.35;;
32918;SDS011;19280;42.646;21.150;2022-07-03T04:52:36;12.00;;;4.93;;
32918;SDS011;19280;42.646;21.150;2022-07-03T04:55:03;9.93;;;4.32;;
32918;SDS011;19280;42.646;21.150;2022-07-03T04:57:31;10.40;;;4.18;;
32918;SDS011;19280;42.646;21.150;2022-07-03T04:59:58;10.07;;;4.07;;
32918;SDS011;19280;42.646;21.150;2022-07-03T05:02:25;6.22;;;3.33;;
32918;SDS011;19280;42.646;21.150;2022-07-03T05:04:51;8.27;;;4.03;;
32918;SDS011;19280;42.646;21.150;2022-07-03T05:07:18;4.55;;;2.97;;
32918;SDS011;19280;42.646;21.150;2022-07-03T05:09:45;6.45;;;2.92;;
32918;SDS011;19280;42.646;21.150;2022-07-03T05:12:11;5.90;;;3.15;;
32918;SDS011;19280;42.646;21.150;2022-07-03T05:14:38;5.13;;;2.88;;
32918;SDS011;19280;42.646;21.150;2022-07-03T05:17:05;6.57;;;3.47;;
32918;SDS011;19280;42.646;21.150;2022-07-03T05:19:31;7.88;;;3.25;;
32918;SDS011;19280;42.646;21.150;2022-07-03T05:21:58;5.05;;;2.97;;
32918;SDS011;19280;42.646;21.150;2022-07-03T05:24:25;8.40;;;3.33;;
32918;SDS011;19280;42.646;21.150;2022-07-03T05:26:51;8.05;;;3.67;;
32918;SDS011;19280;42.646;21.150;2022-07-03T05:29:18;8.52;;;4.40;;
32918;SDS011;19280;42.646;21.150;2022-07-03T05:31:45;9.52;;;4.32;;
32918;SDS011;19280;42.646;21.150;2022-07-03T05:34:12;11.90;;;5.07;;
32918;SDS011;19280;42.646;21.150;2022-07-03T05:36:39;12.73;;;4.25;;
32918;SDS011;19280;42.646;21.150;2022-07-03T05:39:05;7.60;;;4.28;;
32918;SDS011;19280;42.646;21.150;2022-07-03T05:41:51;7.93;;;4.30;;
32918;SDS011;19280;42.646;21.150;2022-07-03T05:44:18;5.20;;;3.40;;
32918;SDS011;19280;42.646;21.150;2022-07-03T05:46:44;9.90;;;3.85;;
32918;SDS011;19280;42.646;21.150;2022-07-03T05:49:11;8.68;;;3.80;;
32918;SDS011;19280;42.646;21.150;2022-07-03T05:51:38;6.35;;;3.55;;
32918;SDS011;19280;42.646;21.150;2022-07-03T05:54:05;5.75;;;3.58;;
32918;SDS011;19280;42.646;21.150;2022-07-03T05:56:31;5.97;;;3.47;;
32918;SDS011;19280;42.646;21.150;2022-07-03T05:58:58;7.00;;;3.63;;
32918;SDS011;19280;42.646;21.150;2022-07-03T06:01:25;6.63;;;3.70;;
32918;SDS011;19280;42.646;21.150;2022-07-03T06:03:51;9.70;;;4.10;;
32918;SDS011;19280;42.646;21.150;2022-07-03T06:06:18;10.88;;;4.68;;
32918;SDS011;19280;42.646;21.150;2022-07-03T06:08:45;7.97;;;3.88;;
32918;SDS011;19280;42.646;21.150;2022-07-03T06:11:12;8.82;;;3.55;;
32918;SDS011;19280;42.646;21.150;2022-07-03T06:13:38;6.90;;;3.78;;
32918;SDS011;19280;42.646;21.150;2022-07-03T06:16:05;7.28;;;3.97;;
32918;SDS011;19280;42.646;21.150;2022-07-03T06:18:32;11.07;;;4.32;;
32918;SDS011;19280;42.646;21.150;2022-07-03T06:20:58;8.07;;;3.88;;
32918;SDS011;19280;42.646;21.150;2022-07-03T06:23:25;8.90;;;3.90;;
32918;SDS011;19280;42.646;21.150;2022-07-03T06:25:52;6.30;;;3.50;;
32918;SDS011;19280;42.646;21.150;2022-07-03T06:28:19;7.93;;;3.95;;
32918;SDS011;19280;42.646;21.150;2022-07-03T06:30:45;6.93;;;3.65;;
32918;SDS011;19280;42.646;21.150;2022-07-03T06:33:12;10.00;;;3.97;;
32918;SDS011;19280;42.646;21.150;2022-07-03T06:35:39;6.00;;;3.60;;
32918;SDS011;19280;42.646;21.150;2022-07-03T06:38:06;14.70;;;4.68;;
32918;SDS011;19280;42.646;21.150;2022-07-03T06:40:33;7.78;;;3.42;;
32918;SDS011;19280;42.646;21.150;2022-07-03T06:42:59;4.55;;;3.22;;
32918;SDS011;19280;42.646;21.150;2022-07-03T06:45:26;6.93;;;3.42;;
32918;SDS011;19280;42.646;21.150;2022-07-03T06:47:53;6.60;;;3.40;;
32918;SDS011;19280;42.646;21.150;2022-07-03T06:50:20;7.90;;;3.53;;
32918;SDS011;19280;42.646;21.150;2022-07-03T06:52:46;7.22;;;3.55;;
32918;SDS011;19280;42.646;21.150;2022-07-03T06:55:13;6.18;;;3.40;;
32918;SDS011;19280;42.646;21.150;2022-07-03T06:57:40;7.15;;;3.50;;
32918;SDS011;19280;42.646;21.150;2022-07-03T07:00:07;8.77;;;3.45;;
32918;SDS011;19280;42.646;21.150;2022-07-03T07:02:34;6.20;;;3.97;;
32918;SDS011;19280;42.646;21.150;2022-07-03T07:05:01;8.32;;;3.80;;
32918;SDS011;19280;42.646;21.150;2022-07-03T07:07:28;8.10;;;3.70;;
32918;SDS011;19280;42.646;21.150;2022-07-03T07:09:55;5.43;;;3.72;;
32918;SDS011;19280;42.646;21.150;2022-07-03T07:12:22;6.65;;;3.60;;
32918;SDS011;19280;42.646;21.150;2022-07-03T07:14:51;9.10;;;3.72;;
32918;SDS011;19280;42.646;21.150;2022-07-03T07:17:17;9.80;;;4.13;;
32918;SDS011;19280;42.646;21.150;2022-07-03T07:19:44;9.27;;;3.72;;
32918;SDS011;19280;42.646;21.150;2022-07-03T07:22:11;5.90;;;3.65;;
32918;SDS011;19280;42.646;21.150;2022-07-03T07:24:38;8.13;;;3.90;;
32918;SDS011;19280;42.646;21.150;2022-07-03T07:27:05;5.00;;;3.15;;
32918;SDS011;19280;42.646;21.150;2022-07-03T07:29:32;7.40;;;3.97;;
32918;SDS011;19280;42.646;21.150;2022-07-03T07:31:59;8.55;;;3.67;;
32918;SDS011;19280;42.646;21.150;2022-07-03T07:34:26;7.63;;;3.70;;
32918;SDS011;19280;42.646;21.150;2022-07-03T07:36:53;10.57;;;3.65;;
32918;SDS011;19280;42.646;21.150;2022-07-03T07:39:19;6.82;;;3.33;;
32918;SDS011;19280;42.646;21.150;2022-07-03T07:41:46;9.35;;;3.92;;
32918;SDS011;19280;42.646;21.150;2022-07-03T07:44:13;10.00;;;3.83;;
32918;SDS011;19280;42.646;21.150;2022-07-03T07:46:40;6.65;;;3.75;;
32918;SDS011;19280;42.646;21.150;2022-07-03T07:49:07;5.38;;;3.78;;
32918;SDS011;19280;42.646;21.150;2022-07-03T07:51:34;10.35;;;4.95;;
32918;SDS011;19280;42.646;21.150;2022-07-03T07:54:01;5.65;;;3.50;;
32918;SDS011;19280;42.646;21.150;2022-07-03T07:56:28;7.32;;;3.63;;
32918;SDS011;19280;42.646;21.150;2022-07-03T07:58:55;8.77;;;3.50;;
32918;SDS011;19280;42.646;21.150;2022-07-03T08:01:21;5.25;;;3.30;;
32918;SDS011;19280;42.646;21.150;2022-07-03T08:04:07;7.85;;;3.70;;
32918;SDS011;19280;42.646;21.150;2022-07-03T08:06:53;5.85;;;3.55;;
32918;SDS011;19280;42.646;21.150;2022-07-03T08:09:21;9.43;;;3.75;;
32918;SDS011;19280;42.646;21.150;2022-07-03T08:11:48;10.85;;;4.82;;
32918;SDS011;19280;42.646;21.150;2022-07-03T08:14:14;12.75;;;4.13;;
32918;SDS011;19280;42.646;21.150;2022-07-03T08:16:41;9.23;;;3.90;;
32918;SDS011;19280;42.646;21.150;2022-07-03T08:19:10;8.13;;;3.67;;
32918;SDS011;19280;42.646;21.150;2022-07-03T08:21:37;5.95;;;4.03;;
32918;SDS011;19280;42.646;21.150;2022-07-03T08:24:04;8.25;;;3.92;;
32918;SDS011;19280;42.646;21.150;2022-07-03T08:26:30;6.68;;;3.83;;
32918;SDS011;19280;42.646;21.150;2022-07-03T08:28:57;6.40;;;3.97;;
32918;SDS011;19280;42.646;21.150;2022-07-03T08:31:24;8.88;;;4.25;;
32918;SDS011;19280;42.646;21.150;2022-07-03T08:33:51;9.98;;;3.95;;
32918;SDS011;19280;42.646;21.150;2022-07-03T08:36:17;8.10;;;4.05;;
32918;SDS011;19280;42.646;21.150;2022-07-03T08:38:44;8.95;;;4.00;;
32918;SDS011;19280;42.646;21.150;2022-07-03T08:41:11;8.05;;;4.45;;
32918;SDS011;19280;42.646;21.150;2022-07-03T08:43:39;6.30;;;4.00;;
32918;SDS011;19280;42.646;21.150;2022-07-03T08:46:07;8.43;;;4.30;;
32918;SDS011;19280;42.646;21.150;2022-07-03T08:48:36;7.53;;;3.65;;
32918;SDS011;19280;42.646;21.150;2022-07-03T08:51:04;4.93;;;3.33;;
32918;SDS011;19280;42.646;21.150;2022-07-03T08:53:31;6.85;;;3.80;;
32918;SDS011;19280;42.646;21.150;2022-07-03T08:55:58;5.97;;;3.85;;
32918;SDS011;19280;42.646;21.150;2022-07-03T08:58:26;7.63;;;3.75;;
32918;SDS011;19280;42.646;21.150;2022-07-03T09:00:56;7.05;;;3.53;;
32918;SDS011;19280;42.646;21.150;2022-07-03T09:03:24;9.70;;;3.80;;
32918;SDS011;19280;42.646;21.150;2022-07-03T09:05:51;6.35;;;3.40;;
32918;SDS011;19280;42.646;21.150;2022-07-03T09:08:18;8.27;;;4.18;;
32918;SDS011;19280;42.646;21.150;2022-07-03T09:10:46;7.32;;;3.95;;
32918;SDS011;19280;42.646;21.150;2022-07-03T09:13:13;5.97;;;3.78;;
32918;SDS011;19280;42.646;21.150;2022-07-03T09:15:39;7.95;;;4.00;;
32918;SDS011;19280;42.646;21.150;2022-07-03T09:18:07;8.13;;;4.05;;
32918;SDS011;19280;42.646;21.150;2022-07-03T09:20:38;11.00;;;3.55;;
32918;SDS011;19280;42.646;21.150;2022-07-03T09:31:13;6.78;;;3.80;;
32918;SDS011;19280;42.646;21.150;2022-07-03T09:33:48;6.53;;;3.95;;
32918;SDS011;19280;42.646;21.150;2022-07-03T09:36:17;5.80;;;3.83;;
32918;SDS011;19280;42.646;21.150;2022-07-03T09:38:44;9.98;;;4.10;;
32918;SDS011;19280;42.646;21.150;2022-07-03T09:41:11;4.55;;;4.10;;
32918;SDS011;19280;42.646;21.150;2022-07-03T09:43:43;7.22;;;4.18;;
32918;SDS011;19280;42.646;21.150;2022-07-03T09:46:10;6.63;;;3.80;;
32918;SDS011;19280;42.646;21.150;2022-07-03T09:48:38;9.52;;;4.13;;
32918;SDS011;19280;42.646;21.150;2022-07-03T09:53:43;8.95;;;4.68;;
32918;SDS011;19280;42.646;21.150;2022-07-03T09:56:10;8.90;;;4.07;;
32918;SDS011;19280;42.646;21.150;2022-07-03T09:58:38;7.03;;;3.97;;
32918;SDS011;19280;42.646;21.150;2022-07-03T10:01:15;5.13;;;4.03;;
32918;SDS011;19280;42.646;21.150;2022-07-03T10:03:42;5.43;;;3.75;;
32918;SDS011;19280;42.646;21.150;2022-07-03T10:06:08;9.25;;;4.00;;
32918;SDS011;19280;42.646;21.150;2022-07-03T10:08:35;6.28;;;4.30;;
32918;SDS011;19280;42.646;21.150;2022-07-03T10:11:03;11.00;;;4.00;;
32918;SDS011;19280;42.646;21.150;2022-07-03T10:13:30;6.88;;;4.05;;
32918;SDS011;19280;42.646;21.150;2022-07-03T10:15:57;9.90;;;4.88;;
32918;SDS011;19280;42.646;21.150;2022-07-03T10:18:27;8.63;;;4.28;;
32918;SDS011;19280;42.646;21.150;2022-07-03T10:20:57;7.53;;;4.13;;
32918;SDS011;19280;42.646;21.150;2022-07-03T10:23:25;9.38;;;4.45;;
32918;SDS011;19280;42.646;21.150;2022-07-03T10:25:54;4.30;;;3.58;;
32918;SDS011;19280;42.646;21.150;2022-07-03T10:28:21;8.90;;;3.70;;
32918;SDS011;19280;42.646;21.150;2022-07-03T10:30:49;9.70;;;4.10;;
32918;SDS011;19280;42.646;21.150;2022-07-03T10:33:16;6.97;;;4.00;;
32918;SDS011;19280;42.646;21.150;2022-07-03T10:35:52;7.75;;;4.78;;
32918;SDS011;19280;42.646;21.150;2022-07-03T10:43:44;7.45;;;4.10;;
32918;SDS011;19280;42.646;21.150;2022-07-03T10:46:30;5.95;;;3.85;;
32918;SDS011;19280;42.646;21.150;2022-07-03T10:51:23;8.20;;;4.00;;
32918;SDS011;19280;42.646;21.150;2022-07-03T10:53:50;8.48;;;4.50;;
32918;SDS011;19280;42.646;21.150;2022-07-03T11:07:26;8.68;;;4.47;;
32918;SDS011;19280;42.646;21.150;2022-07-03T11:15:26;7.43;;;4.65;;
32918;SDS011;19280;42.646;21.150;2022-07-03T11:18:27;6.57;;;4.15;;
32918;SDS011;19280;42.646;21.150;2022-07-03T11:21:00;6.10;;;4.00;;
32918;SDS011;19280;42.646;21.150;2022-07-03T11:23:30;6.00;;;4.03;;
32918;SDS011;19280;42.646;21.150;2022-07-03T11:26:00;8.52;;;4.40;;
32918;SDS011;19280;42.646;21.150;2022-07-03T11:33:45;6.40;;;4.28;;
32918;SDS011;19280;42.646;21.150;2022-07-03T11:38:44;6.43;;;4.25;;
32918;SDS011;19280;42.646;21.150;2022-07-03T11:41:13;7.93;;;4.25;;
32918;SDS011;19280;42.646;21.150;2022-07-03T11:43:46;5.82;;;3.92;;
32918;SDS011;19280;42.646;21.150;2022-07-03T11:46:18;5.53;;;4.20;;
32918;SDS011;19280;42.646;21.150;2022-07-03T11:48:45;13.05;;;4.50;;
32918;SDS011;19280;42.646;21.150;2022-07-03T11:51:12;10.48;;;4.97;;
32918;SDS011;19280;42.646;21.150;2022-07-03T11:53:40;9.43;;;4.32;;
32918;SDS011;19280;42.646;21.150;2022-07-03T11:56:08;9.13;;;4.32;;
32918;SDS011;19280;42.646;21.150;2022-07-03T12:01:11;6.25;;;4.40;;
32918;SDS011;19280;42.646;21.150;2022-07-03T12:03:38;7.90;;;4.28;;
32918;SDS011;19280;42.646;21.150;2022-07-03T12:06:05;7.13;;;4.53;;
32918;SDS011;19280;42.646;21.150;2022-07-03T12:08:32;7.07;;;4.38;;
32918;SDS011;19280;42.646;21.150;2022-07-03T12:11:08;9.25;;;4.25;;
32918;SDS011;19280;42.646;21.150;2022-07-03T12:13:36;9.10;;;4.38;;
32918;SDS011;19280;42.646;21.150;2022-07-03T12:16:05;6.20;;;3.70;;
32918;SDS011;19280;42.646;21.150;2022-07-03T12:18:42;5.63;;;4.22;;
32918;SDS011;19280;42.646;21.150;2022-07-03T12:21:09;5.70;;;4.20;;
32918;SDS011;19280;42.646;21.150;2022-07-03T12:23:50;10.25;;;3.72;;
32918;SDS011;19280;42.646;21.150;2022-07-03T12:28:55;9.25;;;4.28;;
32918;SDS011;19280;42.646;21.150;2022-07-03T12:31:22;7.28;;;4.07;;
32918;SDS011;19280;42.646;21.150;2022-07-03T12:33:49;10.32;;;4.57;;
32918;SDS011;19280;42.646;21.150;2022-07-03T12:36:16;6.68;;;4.07;;
32918;SDS011;19280;42.646;21.150;2022-07-03T12:38:46;11.18;;;4.25;;
32918;SDS011;19280;42.646;21.150;2022-07-03T12:41:13;6.18;;;4.50;;
32918;SDS011;19280;42.646;21.150;2022-07-03T12:43:42;4.75;;;3.95;;
32918;SDS011;19280;42.646;21.150;2022-07-03T12:46:15;6.72;;;4.53;;
32918;SDS011;19280;42.646;21.150;2022-07-03T12:48:47;5.32;;;3.55;;
32918;SDS011;19280;42.646;21.150;2022-07-03T12:51:15;6.43;;;4.20;;
32918;SDS011;19280;42.646;21.150;2022-07-03T12:53:42;9.50;;;3.92;;
32918;SDS011;19280;42.646;21.150;2022-07-03T12:56:09;10.90;;;3.38;;
32918;SDS011;19280;42.646;21.150;2022-07-03T12:58:38;6.68;;;4.00;;
32918;SDS011;19280;42.646;21.150;2022-07-03T13:01:31;6.13;;;4.35;;
32918;SDS011;19280;42.646;21.150;2022-07-03T13:04:04;6.18;;;3.95;;
32918;SDS011;19280;42.646;21.150;2022-07-03T13:06:33;6.93;;;4.00;;
32918;SDS011;19280;42.646;21.150;2022-07-03T13:09:01;8.43;;;3.90;;
32918;SDS011;19280;42.646;21.150;2022-07-03T13:11:39;5.28;;;3.80;;
32918;SDS011;19280;42.646;21.150;2022-07-03T13:14:15;7.72;;;4.07;;
32918;SDS011;19280;42.646;21.150;2022-07-03T13:16:46;7.53;;;3.72;;
32918;SDS011;19280;42.646;21.150;2022-07-03T13:19:14;5.50;;;3.73;;
32918;SDS011;19280;42.646;21.150;2022-07-03T13:21:42;8.82;;;3.70;;
32918;SDS011;19280;42.646;21.150;2022-07-03T13:24:09;7.47;;;3.97;;
32918;SDS011;19280;42.646;21.150;2022-07-03T13:26:36;6.53;;;3.78;;
32918;SDS011;19280;42.646;21.150;2022-07-03T13:29:03;4.80;;;3.50;;
32918;SDS011;19280;42.646;21.150;2022-07-03T13:31:30;5.20;;;3.85;;
32918;SDS011;19280;42.646;21.150;2022-07-03T13:33:58;5.10;;;3.88;;
32918;SDS011;19280;42.646;21.150;2022-07-03T13:36:26;7.80;;;3.80;;
32918;SDS011;19280;42.646;21.150;2022-07-03T13:38:53;7.13;;;3.90;;
32918;SDS011;19280;42.646;21.150;2022-07-03T13:41:20;8.95;;;3.92;;
32918;SDS011;19280;42.646;21.150;2022-07-03T13:43:48;5.15;;;4.10;;
32918;SDS011;19280;42.646;21.150;2022-07-03T13:46:17;4.22;;;3.60;;
32918;SDS011;19280;42.646;21.150;2022-07-03T13:48:44;5.10;;;3.50;;
32918;SDS011;19280;42.646;21.150;2022-07-03T13:51:10;4.68;;;3.28;;
32918;SDS011;19280;42.646;21.150;2022-07-03T13:53:37;3.95;;;3.40;;
32918;SDS011;19280;42.646;21.150;2022-07-03T13:56:04;5.47;;;3.78;;
32918;SDS011;19280;42.646;21.150;2022-07-03T13:58:31;6.28;;;3.67;;
32918;SDS011;19280;42.646;21.150;2022-07-03T14:00:58;3.97;;;3.20;;
32918;SDS011;19280;42.646;21.150;2022-07-03T14:03:26;8.85;;;3.55;;
32918;SDS011;19280;42.646;21.150;2022-07-03T14:05:54;4.30;;;3.10;;
32918;SDS011;19280;42.646;21.150;2022-07-03T14:08:21;4.88;;;3.72;;
32918;SDS011;19280;42.646;21.150;2022-07-03T14:10:48;7.22;;;3.50;;
32918;SDS011;19280;42.646;21.150;2022-07-03T14:13:15;8.23;;;3.47;;
32918;SDS011;19280;42.646;21.150;2022-07-03T14:15:42;4.45;;;3.28;;
32918;SDS011;19280;42.646;21.150;2022-07-03T14:18:09;6.45;;;3.85;;
32918;SDS011;19280;42.646;21.150;2022-07-03T14:20:35;7.03;;;4.50;;
32918;SDS011;19280;42.646;21.150;2022-07-03T14:23:02;9.35;;;4.03;;
32918;SDS011;19280;42.646;21.150;2022-07-03T14:25:29;6.78;;;4.50;;
32918;SDS011;19280;42.646;21.150;2022-07-03T14:27:55;4.32;;;3.80;;
32918;SDS011;19280;42.646;21.150;2022-07-03T14:30:41;5.65;;;3.78;;
32918;SDS011;19280;42.646;21.150;2022-07-03T14:33:26;5.43;;;3.55;;
32918;SDS011;19280;42.646;21.150;2022-07-03T14:35:53;5.45;;;3.55;;
32918;SDS011;19280;42.646;21.150;2022-07-03T14:38:19;4.93;;;3.53;;
32918;SDS011;19280;42.646;21.150;2022-07-03T14:40:46;7.93;;;3.83;;
32918;SDS011;19280;42.646;21.150;2022-07-03T14:43:13;5.15;;;4.28;;
32918;SDS011;19280;42.646;21.150;2022-07-03T14:45:39;4.75;;;3.83;;
32918;SDS011;19280;42.646;21.150;2022-07-03T14:48:06;8.15;;;3.88;;
32918;SDS011;19280;42.646;21.150;2022-07-03T14:50:34;6.30;;;3.80;;
32918;SDS011;19280;42.646;21.150;2022-07-03T14:53:01;5.25;;;3.85;;
32918;SDS011;19280;42.646;21.150;2022-07-03T14:55:31;5.85;;;4.18;;
32918;SDS011;19280;42.646;21.150;2022-07-03T15:00:28;7.20;;;4.53;;
32918;SDS011;19280;42.646;21.150;2022-07-03T15:03:05;6.63;;;4.15;;
32918;SDS011;19280;42.646;21.150;2022-07-03T15:05:39;5.53;;;4.55;;
32918;SDS011;19280;42.646;21.150;2022-07-03T15:10:56;6.07;;;5.43;;
32918;SDS011;19280;42.646;21.150;2022-07-03T15:13:23;9.27;;;4.95;;
32918;SDS011;19280;42.646;21.150;2022-07-03T15:15:50;7.97;;;5.00;;
32918;SDS011;19280;42.646;21.150;2022-07-03T15:18:18;8.60;;;5.60;;
32918;SDS011;19280;42.646;21.150;2022-07-03T15:20:47;11.05;;;5.40;;
32918;SDS011;19280;42.646;21.150;2022-07-03T15:23:17;9.63;;;5.32;;
32918;SDS011;19280;42.646;21.150;2022-07-03T15:25:45;10.02;;;4.97;;
32918;SDS011;19280;42.646;21.150;2022-07-03T15:28:11;9.00;;;5.07;;
32918;SDS011;19280;42.646;21.150;2022-07-03T15:30:43;7.05;;;5.40;;
32918;SDS011;19280;42.646;21.150;2022-07-03T15:33:12;10.23;;;5.63;;
32918;SDS011;19280;42.646;21.150;2022-07-03T15:35:43;10.77;;;4.85;;
32918;SDS011;19280;42.646;21.150;2022-07-03T15:38:12;7.93;;;4.43;;
32918;SDS011;19280;42.646;21.150;2022-07-03T15:40:55;7.00;;;4.70;;
32918;SDS011;19280;42.646;21.150;2022-07-03T15:48:44;5.60;;;4.22;;
32918;SDS011;19280;42.646;21.150;2022-07-03T15:51:24;5.47;;;3.92;;
32918;SDS011;19280;42.646;21.150;2022-07-03T15:53:59;5.88;;;3.70;;
32918;SDS011;19280;42.646;21.150;2022-07-03T15:56:30;6.72;;;4.00;;
32918;SDS011;19280;42.646;21.150;2022-07-03T15:58:59;6.32;;;3.50;;
32918;SDS011;19280;42.646;21.150;2022-07-03T16:01:27;4.38;;;3.63;;